Terminal Aerodrome Forecast
Issued by NWS

Home | Current Version | Previous Version | Text Only | Print | Product List | Glossary On
Versions: 1 2 3 4 5 6 7 8 9 10 11 12 13 14 15 16 17
000
FTUS43 KAPX 201720
TAFTVC
TAF
KTVC 201720Z 2018/2118 25005KT P6SM SCT120 BKN200
     FM202100 24004KT P6SM BKN120
     FM210200 VRB03KT 4SM BR BKN100
     FM210800 VRB03KT 2SM BR BKN080
     FM211600 00000KT 3SM BR BKN015=

USA.gov is the U.S. government's official web portal to all federal, state and local government web resources and services.